Huvudsida
METAR-TAF:

METAR-TAF

Flygplatser :

Kangān, Iran

latitud: 27-49-14N, longitud: 52-21-08E, höjd: 662 m

Aktuellt väderrapport

Denna rapport gjordes för 27 minuter sedan, klockan 04:00 UTC
Stilla vind
Temperatur 15°C
Fuktighet 100%
Tryck 1016 hPa
Sikt: 5000 m
Spridda moln på en höjd av 300 ft
Brutna moln på en höjd av 3500 ft
Brutna moln på en höjd av 10000 ft
fuktdis

METAR: OIBJ 200400Z 00000KT 5000 BR SCT003 BKN035 BKN100 15/15 Q1016

Tid: 07:57 (04:27 UTC)


TAF: saknas

Aktuella väderrapporter och prognoser från 4000 flygplatser (METAR- och TAF-rapporter).

De tillgängliga stationerna syns som gula och röda prickar på kartan.

För musen över prickarna för att se namnen på stationerna.

Klicka sedan för att få väderrapporter och prognoser.

För att ändra kartan: Klicka på de gröna knapparna med ett svart kors på för att zooma in; den gröna knappen med ett streck på för att zooma ut; eller på de gröna pilarna för angränsande kartor.


METAR-TAF: